Fort Lyon, Colorado
Current Conditions -  °F | °C
As of 2:53 PM on Monday 20 Oct 2014 (Local Time) from KLHX Reporting Station
Clear Clear  
Wind Chill: 75°   Ceiling: Unl
Heat Index: 75°   Visibility: 10mi
Dew Point: 41°   Wind: 12mph
Humidity: 29%   Direction: 140°SE
Pressure: 30.11"   Gusts: NA
Location:  38.1°N, 103.15°W
Report Text: KLHX 202053Z AUTO 14010KT 10SM CLR 24/05 A3011 RMK AO2 SLP156 T02390050 56022
Loading
Personal Weather Stations






























Interactive Weather Map
Tropical Storm Tracking
New forecast layout! Learn more

10-Day Weather Forecast

Advertisements
Track Severe Weather on mobile